Time;durP1;ratioP1;P1;durP2;ratioP2;P2;SDS_P1;SDS_P2;PMS_P1;PMS_P2;Temp;Humidity;BMP_temperature;BMP_pressure;BME280_temperature;BME280_humidity;BME280_pressure;Samples;Min_cycle;Max_cycle;Signal;HPM_P1;HPM_P2
2022/08/27 00:02:50;;;;;;;6.17;4.30;;;22.40;94.90;;;;;;21163405;28;20211;-69
2022/08/27 00:12:55;;;;;;;8.70;4.50;;;22.40;94.90;;;;;;21162893;28;20240;-69
2022/08/27 00:22:57;;;;;;;7.07;5.17;;;22.30;94.70;;;;;;21162899;28;20567;-70
2022/08/27 00:32:58;;;;;;;8.13;4.50;;;22.40;95.00;;;;;;21162188;28;20256;-72
2022/08/27 00:43:02;;;;;;;9.57;5.17;;;22.30;95.00;;;;;;21162546;28;20212;-69
2022/08/27 00:53:09;;;;;;;6.77;5.10;;;22.30;95.00;;;;;;21162345;28;20233;-68
2022/08/27 01:03:11;;;;;;;7.47;5.50;;;22.20;95.10;;;;;;21161115;28;20626;-73
2022/08/27 01:13:15;;;;;;;7.23;5.77;;;22.10;95.30;;;;;;21081480;28;20234;-70
2022/08/27 01:23:33;;;;;;;9.07;5.80;;;22.10;95.60;;;;;;21083788;28;20202;-70
2022/08/27 01:33:36;;;;;;;12.07;6.20;;;22.10;95.80;;;;;;21090351;28;20242;-68
2022/08/27 01:43:37;;;;;;;10.47;6.83;;;22.10;96.00;;;;;;21089666;28;20203;-70
2022/08/27 01:53:39;;;;;;;12.07;7.03;;;22.10;96.20;;;;;;21071363;28;20612;-70
2022/08/27 02:03:41;;;;;;;7.47;6.57;;;22.00;96.40;;;;;;21088223;28;20212;-72
2022/08/27 02:13:43;;;;;;;15.43;7.53;;;22.00;96.60;;;;;;21087157;28;20253;-71
2022/08/27 02:23:45;;;;;;;12.53;7.70;;;22.00;96.80;;;;;;21086730;28;20209;-73
2022/08/27 02:33:48;;;;;;;10.80;7.20;;;22.00;96.90;;;;;;21084953;28;20602;-73
2022/08/27 02:43:49;;;;;;;14.23;8.40;;;21.90;97.10;;;;;;21084801;28;20590;-73
2022/08/27 02:53:51;;;;;;;10.00;7.23;;;21.90;97.30;;;;;;21084357;28;20779;-70
2022/08/27 03:03:55;;;;;;;9.93;6.50;;;21.90;97.40;;;;;;21083121;28;20213;-71
2022/08/27 03:13:57;;;;;;;7.60;6.40;;;21.90;97.40;;;;;;21079308;28;20234;-72
2022/08/27 03:24:00;;;;;;;9.50;7.70;;;21.80;97.60;;;;;;21080641;28;20292;-73
2022/08/27 03:34:15;;;;;;;10.20;7.00;;;21.70;97.80;;;;;;21080811;28;20274;-72
2022/08/27 03:44:22;;;;;;;16.27;8.57;;;21.70;98.00;;;;;;21079911;28;20216;-73
2022/08/27 03:54:24;;;;;;;17.30;8.63;;;21.70;98.20;;;;;;21080114;28;20274;-69
2022/08/27 04:04:25;;;;;;;11.27;8.60;;;21.70;98.30;;;;;;21078973;28;20213;-70
2022/08/27 04:14:27;;;;;;;12.37;9.37;;;21.80;98.30;;;;;;21078238;28;20605;-72
2022/08/27 04:24:31;;;;;;;16.33;9.70;;;21.80;98.30;;;;;;21078094;28;20663;-71
2022/08/27 04:34:32;;;;;;;13.23;9.00;;;21.80;98.30;;;;;;21077539;28;20619;-73
2022/08/27 04:44:34;;;;;;;13.53;10.33;;;21.80;98.40;;;;;;21077501;28;20659;-72
2022/08/27 04:54:36;;;;;;;14.53;9.97;;;21.90;98.70;;;;;;21081282;28;20234;-73
2022/08/27 05:04:39;;;;;;;18.93;14.63;;;21.90;98.30;;;;;;21092810;28;20206;-72
2022/08/27 05:14:41;;;;;;;19.77;12.53;;;22.00;98.60;;;;;;21142192;28;20266;-72
2022/08/27 05:24:42;;;;;;;14.77;10.57;;;22.00;98.40;;;;;;21175202;28;20574;-70
2022/08/27 05:34:50;;;;;;;16.33;11.30;;;22.00;98.40;;;;;;21174464;28;20249;-73
2022/08/27 05:44:52;;;;;;;14.27;10.60;;;22.00;98.40;;;;;;21164864;28;20194;-73
2022/08/27 05:54:54;;;;;;;18.53;11.27;;;22.00;98.40;;;;;;21174069;28;20709;-73
2022/08/27 06:04:56;;;;;;;17.63;11.60;;;22.10;98.30;;;;;;21172145;28;20293;-73
2022/08/27 06:14:57;;;;;;;16.87;11.67;;;22.10;98.30;;;;;;21109112;28;20238;-75
2022/08/27 06:24:59;;;;;;;13.03;10.57;;;22.20;98.20;;;;;;21086874;28;20213;-69
2022/08/27 06:35:01;;;;;;;14.87;10.80;;;22.10;98.00;;;;;;21085381;28;20575;-69
2022/08/27 06:45:04;;;;;;;18.57;11.07;;;22.10;98.10;;;;;;21122430;28;20207;-70
2022/08/27 06:55:06;;;;;;;18.30;11.03;;;22.30;97.90;;;;;;21084123;28;20260;-66
2022/08/27 07:05:10;;;;;;;17.13;10.47;;;22.20;97.90;;;;;;21164998;28;20202;-67
2022/08/27 07:15:12;;;;;;;19.93;10.50;;;22.30;97.80;;;;;;21166403;28;20267;-68
2022/08/27 07:25:18;;;;;;;15.43;9.50;;;22.40;97.70;;;;;;21164455;28;20263;-68
2022/08/27 07:35:20;;;;;;;12.70;8.83;;;22.50;97.60;;;;;;21136015;28;20236;-68
2022/08/27 07:45:22;;;;;;;15.83;10.07;;;22.40;97.60;;;;;;21083482;28;20205;-68
2022/08/27 07:55:24;;;;;;;13.37;9.43;;;22.50;97.70;;;;;;21162683;28;20245;-71
2022/08/27 08:05:26;;;;;;;18.17;9.40;;;22.50;97.50;;;;;;21163349;28;20202;-70
2022/08/27 08:15:28;;;;;;;14.53;9.47;;;22.50;97.50;;;;;;21163126;28;20229;-67
2022/08/27 08:25:29;;;;;;;12.70;7.70;;;22.50;97.50;;;;;;21163022;28;20198;-72
2022/08/27 08:35:40;;;;;;;17.27;8.50;;;22.60;97.60;;;;;;21175421;28;20237;-68
2022/08/27 08:45:43;;;;;;;20.53;12.60;;;22.60;97.50;;;;;;21179110;28;20202;-69
2022/08/27 08:56:00;;;;;;;19.73;12.23;;;22.50;97.50;;;;;;21178294;28;20238;-70
2022/08/27 09:06:06;;;;;;;13.67;9.07;;;22.50;97.60;;;;;;21177232;28;20215;-67
2022/08/27 09:16:08;;;;;;;12.53;8.60;;;22.60;97.60;;;;;;21176368;28;20280;-69
2022/08/27 09:26:19;;;;;;;17.07;7.73;;;22.70;97.50;;;;;;21175595;28;20213;-71
2022/08/27 09:36:23;;;;;;;12.83;7.60;;;22.80;97.30;;;;;;21174815;28;20239;-67
2022/08/27 09:46:26;;;;;;;53.30;31.63;;;23.00;97.10;;;;;;21142925;28;20670;-68
2022/08/27 09:56:45;;;;;;;10.40;7.33;;;23.10;96.70;;;;;;21086411;28;20584;-67
2022/08/27 10:06:49;;;;;;;10.63;7.10;;;23.20;96.50;;;;;;21088229;28;20210;-68
2022/08/27 10:17:05;;;;;;;10.67;6.07;;;23.30;96.20;;;;;;21087079;28;20716;-70
2022/08/27 10:27:35;;;;;;;7.43;5.40;;;23.40;95.90;;;;;;21086191;28;20752;-72
2022/08/27 10:37:58;;;;;;;9.37;6.20;;;23.50;95.20;;;;;;21085599;28;20326;-72
2022/08/27 10:48:10;;;;;;;7.13;5.47;;;23.60;94.90;;;;;;21084430;28;20588;-75
2022/08/27 10:58:40;;;;;;;7.40;4.80;;;23.70;94.60;;;;;;21083112;28;20611;-72
2022/08/27 11:08:59;;;;;;;6.40;5.10;;;23.90;94.60;;;;;;21083281;28;20233;-74
2022/08/27 11:19:22;;;;;;;7.03;5.10;;;23.80;94.90;;;;;;21082333;28;20206;-70
2022/08/27 11:29:36;;;;;;;5.83;4.70;;;23.80;95.10;;;;;;21081205;28;20618;-74
2022/08/27 11:40:37;;;;;;;5.90;5.03;;;23.90;95.10;;;;;;21081439;28;20289;-71
2022/08/27 11:50:39;;;;;;;6.07;5.00;;;24.20;94.90;;;;;;20839112;28;20230;-69
2022/08/27 12:00:41;;;;;;;8.17;5.40;;;24.20;94.70;;;;;;21076647;28;20674;-68
2022/08/27 12:11:05;;;;;;;7.63;4.87;;;24.20;94.40;;;;;;21078967;28;20260;-71
2022/08/27 12:21:20;;;;;;;7.90;5.47;;;24.30;94.20;;;;;;21078778;28;20211;-73
2022/08/27 12:31:23;;;;;;;8.80;5.27;;;24.50;93.90;;;;;;21089150;28;20237;-70
2022/08/27 12:41:37;;;;;;;8.80;5.50;;;24.60;93.50;;;;;;21132038;28;20206;-74
2022/08/27 12:51:44;;;;;;;12.43;5.77;;;24.70;93.30;;;;;;21123395;28;20263;-73
2022/08/27 13:02:24;;;;;;;10.23;5.93;;;24.50;93.20;;;;;;21076852;28;20213;-69
2022/08/27 13:12:25;;;;;;;9.80;5.97;;;23.90;95.20;;;;;;21076355;28;20311;-69
2022/08/27 13:22:37;;;;;;;7.47;5.80;;;23.60;96.50;;;;;;21089831;28;20686;-68
2022/08/27 13:32:39;;;;;;;11.10;6.17;;;23.40;97.60;;;;;;21166978;28;20273;-67
2022/08/27 13:42:43;;;;;;;8.23;5.80;;;23.30;98.40;;;;;;21174808;28;20202;-72
2022/08/27 14:03:30;;;;;;;8.37;5.07;;;23.40;99.50;;;;;;21174432;28;20647;-71
2022/08/27 14:13:40;;;;;;;6.40;5.17;;;23.40;99.40;;;;;;21132415;28;20230;-67
2022/08/27 14:23:44;;;;;;;6.87;4.63;;;23.30;99.60;;;;;;21088150;28;20546;-66
2022/08/27 14:33:46;;;;;;;7.00;4.83;;;23.30;99.90;;;;;;21085593;28;20245;-68
2022/08/27 14:43:48;;;;;;;6.03;5.43;;;23.20;99.90;;;;;;21068888;28;20290;-67
2022/08/27 14:53:50;;;;;;;8.30;6.13;;;23.20;99.90;;;;;;21085043;28;20234;-71
2022/08/27 15:03:53;;;;;;;7.50;5.43;;;23.00;99.90;;;;;;21083641;28;20300;-69
2022/08/27 15:13:57;;;;;;;9.13;5.73;;;23.10;99.90;;;;;;21082587;28;20242;-68
2022/08/27 15:24:03;;;;;;;7.43;5.53;;;23.10;99.90;;;;;;21113809;28;20292;-73
2022/08/27 15:34:05;;;;;;;8.20;6.10;;;23.10;99.90;;;;;;21164304;28;20723;-75
2022/08/27 15:44:07;;;;;;;12.23;7.73;;;23.10;99.90;;;;;;21164498;28;20568;-72
2022/08/27 15:54:09;;;;;;;5.57;4.93;;;23.10;99.90;;;;;;21164464;28;20238;-72
2022/08/27 16:04:14;;;;;;;6.87;5.57;;;23.10;99.90;;;;;;21164032;28;20658;-71
2022/08/27 16:14:16;;;;;;;5.37;4.83;;;23.10;99.90;;;;;;21162889;28;20706;-72
2022/08/27 16:24:20;;;;;;;6.67;4.90;;;23.20;99.90;;;;;;21162781;28;20658;-72
2022/08/27 16:34:25;;;;;;;9.30;8.30;;;23.20;99.30;;;;;;21161995;28;20260;-72
2022/08/27 16:44:27;;;;;;;5.80;4.97;;;23.10;98.30;;;;;;21143987;28;20519;-71
2022/08/27 16:54:29;;;;;;;5.37;4.87;;;23.00;97.80;;;;;;21153109;28;20241;-71
2022/08/27 17:04:30;;;;;;;11.23;7.10;;;22.90;97.50;;;;;;21177769;28;20236;-76
2022/08/27 17:14:42;;;;;;;7.60;6.10;;;22.90;97.50;;;;;;21176712;28;20236;-72
2022/08/27 17:24:44;;;;;;;7.23;6.00;;;22.90;97.60;;;;;;21123873;28;20215;-73
2022/08/27 17:34:45;;;;;;;7.67;6.00;;;22.90;97.70;;;;;;21089653;28;20246;-72
2022/08/27 17:44:47;;;;;;;9.00;6.50;;;22.80;97.50;;;;;;21090074;28;20580;-70
2022/08/27 17:54:52;;;;;;;7.67;6.83;;;22.80;97.30;;;;;;21089663;28;20317;-71
2022/08/27 18:04:55;;;;;;;13.43;7.27;;;22.80;97.30;;;;;;21088040;28;20206;-70
2022/08/27 18:15:26;;;;;;;10.30;7.20;;;22.70;97.30;;;;;;21087742;28;20766;-71
2022/08/27 18:25:30;;;;;;;9.67;7.17;;;22.60;97.30;;;;;;21087342;28;20217;-73
2022/08/27 18:35:37;;;;;;;9.43;7.03;;;22.60;97.20;;;;;;21086358;28;20273;-70
2022/08/27 18:45:39;;;;;;;16.20;7.23;;;22.50;97.20;;;;;;21086226;28;20202;-76
2022/08/27 18:55:41;;;;;;;12.73;7.57;;;22.50;97.30;;;;;;21084492;28;20698;-73
2022/08/27 19:05:43;;;;;;;8.80;7.67;;;22.40;97.30;;;;;;21084430;28;20206;-72
2022/08/27 19:16:12;;;;;;;9.40;8.17;;;22.30;97.30;;;;;;21064561;28;20233;-71
2022/08/27 19:26:18;;;;;;;12.17;8.27;;;22.30;97.40;;;;;;21081424;28;20206;-74
2022/08/27 19:36:22;;;;;;;11.90;7.80;;;22.20;97.20;;;;;;21082501;28;20242;-70
2022/08/27 19:46:27;;;;;;;10.73;7.97;;;22.30;97.00;;;;;;21081309;28;20209;-76
2022/08/27 19:56:31;;;;;;;9.07;7.13;;;22.30;96.90;;;;;;21079846;28;20226;-77
2022/08/27 20:06:33;;;;;;;8.77;7.40;;;22.20;96.80;;;;;;21079562;28;20294;-70
2022/08/27 20:16:35;;;;;;;12.00;7.10;;;22.20;96.70;;;;;;21079175;28;20281;-73
2022/08/27 20:26:38;;;;;;;15.90;7.60;;;22.20;96.60;;;;;;21090650;28;20238;-72
2022/08/27 20:36:40;;;;;;;10.30;7.13;;;22.10;96.50;;;;;;21108094;28;20597;-73
2022/08/27 20:46:42;;;;;;;10.33;7.03;;;22.10;96.60;;;;;;21107569;28;20578;-73
2022/08/27 20:56:51;;;;;;;24.20;7.43;;;22.00;96.60;;;;;;21105755;28;20234;-72
2022/08/27 21:06:53;;;;;;;8.33;6.80;;;22.00;96.60;;;;;;21105180;28;20245;-72
2022/08/27 21:16:55;;;;;;;11.53;6.87;;;21.90;96.50;;;;;;21104455;28;20606;-72
2022/08/27 21:26:57;;;;;;;12.63;7.50;;;21.90;96.50;;;;;;21102794;28;20231;-72
2022/08/27 21:36:59;;;;;;;10.33;6.30;;;21.90;96.30;;;;;;21109305;28;20234;-70
2022/08/27 21:47:02;;;;;;;7.57;5.83;;;21.80;96.30;;;;;;21090017;28;20205;-73
2022/08/27 21:57:05;;;;;;;9.73;7.10;;;21.70;96.40;;;;;;21088836;28;20586;-73
2022/08/27 22:07:07;;;;;;;12.77;6.50;;;21.70;96.40;;;;;;21088564;28;20206;-73
2022/08/27 22:17:08;;;;;;;10.87;6.27;;;21.60;96.50;;;;;;21087967;28;20238;-72
2022/08/27 22:27:10;;;;;;;7.70;6.27;;;21.60;96.50;;;;;;21086497;28;20230;-72
2022/08/27 22:37:12;;;;;;;8.75;6.00;;;21.50;96.60;;;;;;21126352;28;20461;-75
2022/08/27 22:47:14;;;;;;;11.30;6.00;;;21.70;96.70;;;;;;21168181;28;20286;-73
2022/08/27 22:57:16;;;;;;;11.53;6.20;;;21.50;96.90;;;;;;21168421;28;20242;-74
2022/08/27 23:07:18;;;;;;;12.80;6.10;;;21.40;96.50;;;;;;21168279;28;20237;-74
2022/08/27 23:17:20;;;;;;;10.73;5.63;;;21.40;96.80;;;;;;21167007;28;20237;-74
2022/08/27 23:27:27;;;;;;;7.23;5.17;;;21.40;96.70;;;;;;21166352;28;20251;-75
2022/08/27 23:37:30;;;;;;;9.90;4.83;;;21.40;96.70;;;;;;21165909;28;20229;-74
2022/08/27 23:47:32;;;;;;;7.67;4.80;;;21.30;96.50;;;;;;21165009;28;20689;-74
2022/08/27 23:57:34;;;;;;;8.27;4.53;;;21.30;96.50;;;;;;21145994;28;20723;-74
